Pine Galaxy — C6TT5 — position and weather

sailwx.info

Track history (hours):
 
Tides and Currents Weather Stations Pressure Air Temp Water Temp Dewpoint Dewpoint Depression Visibility Wind Speed Wind Dir Waves Ship Positions

Pine Galaxy

Last reported at 2014-Nov-13 20:33 UTC. Time now 2014-Nov-23 21:21 UTC.
Position N 40°18' E 122°02'.
Warning: this ship's position is 10 days out of date.

Length 147 m; draft 9.6 m.

Type: Tanker. MMSI: 311772000.

Date/timePositionNaut miles runAvg speedWind from/ knotsBaromVisibWave heightAir tempDewpointWater temp
2014-Nov-13 20:33N 40°18' E 122°02'3 2.7
2014-Nov-13 19:33N 40°18' E 122°05'0 0.0
2014-Nov-13 18:15N 40°18' E 122°05'0 0.0
2014-Nov-13 17:21N 40°18' E 122°05'0 0.1
2014-Nov-13 16:33N 40°18' E 122°05'0 0.0
2014-Nov-13 15:33N 40°18' E 122°05'0 0.0
2014-Nov-13 14:33N 40°18' E 122°05'0 0.0
2014-Nov-13 13:33N 40°18' E 122°05'0 0.0
2014-Nov-13 09:27N 40°18' E 122°05'0 0.0
2014-Nov-13 08:33N 40°18' E 122°05'0 0.0
2014-Nov-13 07:27N 40°18' E 122°05'0 0.0
2014-Nov-13 06:33N 40°18' E 122°05'0 0.0
2014-Nov-13 05:33N 40°18' E 122°05'1 1.3
2014-Nov-13 04:33N 40°17' E 122°04'8 7.8
2014-Nov-13 03:33N 40°19' E 121°54'2 2.1
2014-Nov-13 02:29N 40°21' E 121°54'0 0.1
2014-Nov-13 01:29N 40°21' E 121°54'0 0.0
2014-Nov-12 18:29N 40°21' E 121°54'0 0.0
2014-Nov-12 10:29N 40°21' E 121°54'0 0.0
2014-Nov-12 09:23N 40°21' E 121°54'0 0.0
2014-Nov-12 08:23N 40°21' E 121°54'0 0.0
2014-Nov-12 07:29N 40°21' E 121°54'0 0.0
2014-Nov-12 03:05N 40°21' E 121°54'0 0.1
2014-Nov-12 02:17N 40°21' E 121°54'0 0.0
2014-Nov-12 01:23N 40°21' E 121°54'0 0.0
2014-Nov-12 00:23N 40°21' E 121°54'0 0.0
2014-Nov-11 23:17N 40°21' E 121°54'0 0.0
2014-Nov-11 22:29N 40°21' E 121°54'1 0.7
2014-Nov-11 20:33N 40°20' E 121°55'20311.3
2014-Nov-11 02:34N 38°53' E 117°57'1010.1
2014-Nov-11 01:32N 38°57' E 117°45'0 0.1
2014-Nov-11 00:26N 38°57' E 117°45'0 0.1
2014-Nov-10 23:32N 38°57' E 117°45'0 0.0
2014-Nov-10 22:32N 38°57' E 117°45'0 0.0
2014-Nov-10 21:26N 38°57' E 117°45'0 0.0
2014-Nov-10 20:32N 38°57' E 117°45'0 0.0
2014-Nov-10 19:32N 38°57' E 117°45'0 0.0
2014-Nov-10 18:32N 38°57' E 117°45'0 0.0
2014-Nov-10 17:32N 38°57' E 117°45'0 0.0
2014-Nov-10 16:32N 38°57' E 117°45'0 0.0
2014-Nov-10 15:32N 38°57' E 117°45'0 0.0
2014-Nov-10 14:26N 38°57' E 117°45'0 0.0
2014-Nov-10 13:32N 38°57' E 117°45'0 0.0
2014-Nov-10 12:32N 38°57' E 117°45'0 0.0
2014-Nov-10 11:32N 38°57' E 117°45'0 0.0
2014-Nov-10 10:32N 38°57' E 117°45'0 0.0
2014-Nov-10 09:32N 38°57' E 117°45'0 0.0
2014-Nov-10 08:26N 38°57' E 117°45'0 0.0
2014-Nov-10 07:32N 38°57' E 117°45'0 0.0
2014-Nov-10 06:26N 38°57' E 117°45'0 0.1
2014-Nov-10 05:32N 38°57' E 117°45'0 0.0
2014-Nov-10 04:32N 38°57' E 117°45'0 0.0
2014-Nov-10 03:33N 38°57' E 117°45'9 8.3
2014-Nov-10 02:31N 38°54' E 117°55'7 3.2
2014-Nov-10 00:29N 38°53' E 118°03'0 0.0
2014-Nov-09 23:17N 38°53' E 118°03'0 0.1
2014-Nov-09 22:29N 38°53' E 118°03'0 0.0
2014-Nov-09 21:23N 38°53' E 118°03'0 0.1
2014-Nov-09 20:23N 38°53' E 118°03'0 0.1
2014-Nov-09 19:29N 38°53' E 118°03'0 0.0
2014-Nov-09 18:29N 38°53' E 118°03'0 0.0
2014-Nov-09 17:23N 38°53' E 118°03'0 0.1
2014-Nov-09 16:29N 38°53' E 118°03'0 0.0
2014-Nov-09 10:29N 38°53' E 118°03'0 0.0
2014-Nov-09 09:29N 38°53' E 118°03'0 0.0
2014-Nov-09 08:05N 38°53' E 118°03'0 0.1
2014-Nov-09 07:17N 38°53' E 118°03'0 0.0
2014-Nov-09 06:29N 38°53' E 118°03'0 0.0
2014-Nov-09 04:29N 38°53' E 118°03'0 0.1
2014-Nov-09 03:11N 38°53' E 118°03'0 0.0
2014-Nov-09 02:23N 38°53' E 118°03'0 0.0
2014-Nov-09 01:23N 38°53' E 118°03'0 0.0
2014-Nov-09 00:23N 38°53' E 118°03'0 0.0
2014-Nov-08 23:05N 38°53' E 118°03'0 0.1
2014-Nov-08 22:28N 38°53' E 118°03'4 3.9
2014-Nov-08 21:27N 38°54' E 118°08'15212.7
2014-Nov-08 09:31N 38°29' E 121°20'  
2014-Nov-05 08:10N 24°09' E 120°05'1013.9
2014-Nov-05 07:27N 23°60' E 120°02'6712.8
2014-Nov-05 02:13N 22°53' E 119°54'914.0
2014-Nov-05 01:33N 22°44' E 119°54'1414.2
2014-Nov-05 00:33N 22°30' E 119°54'  
Track history (hours):
 
Tides and Currents Weather Stations Pressure Air Temp Water Temp Dewpoint Dewpoint Depression Visibility Wind Speed Wind Dir Waves Ship Positions

Pine Galaxy

Last reported at 2014-Nov-13 20:33 UTC. Time now 2014-Nov-23 21:21 UTC.
Position N 40°18' E 122°02'.
Warning: this ship's position is 10 days out of date.

Length 147 m; draft 9.6 m.

Type: Tanker. MMSI: 311772000.

Date/timePositionNaut miles runAvg speedWind from/ knotsBaromVisibWave heightAir tempDewpointWater temp
2014-Nov-13 20:33N 40°18' E 122°02'3 2.7
2014-Nov-13 19:33N 40°18' E 122°05'0 0.0
2014-Nov-13 18:15N 40°18' E 122°05'0 0.0
2014-Nov-13 17:21N 40°18' E 122°05'0 0.1
2014-Nov-13 16:33N 40°18' E 122°05'0 0.0
2014-Nov-13 15:33N 40°18' E 122°05'0 0.0
2014-Nov-13 14:33N 40°18' E 122°05'0 0.0
2014-Nov-13 13:33N 40°18' E 122°05'0 0.0
2014-Nov-13 09:27N 40°18' E 122°05'0 0.0
2014-Nov-13 08:33N 40°18' E 122°05'0 0.0
2014-Nov-13 07:27N 40°18' E 122°05'0 0.0
2014-Nov-13 06:33N 40°18' E 122°05'0 0.0
2014-Nov-13 05:33N 40°18' E 122°05'1 1.3
2014-Nov-13 04:33N 40°17' E 122°04'8 7.8
2014-Nov-13 03:33N 40°19' E 121°54'2 2.1
2014-Nov-13 02:29N 40°21' E 121°54'0 0.1
2014-Nov-13 01:29N 40°21' E 121°54'0 0.0
2014-Nov-12 18:29N 40°21' E 121°54'0 0.0
2014-Nov-12 10:29N 40°21' E 121°54'0 0.0
2014-Nov-12 09:23N 40°21' E 121°54'0 0.0
2014-Nov-12 08:23N 40°21' E 121°54'0 0.0
2014-Nov-12 07:29N 40°21' E 121°54'0 0.0
2014-Nov-12 03:05N 40°21' E 121°54'0 0.1
2014-Nov-12 02:17N 40°21' E 121°54'0 0.0
2014-Nov-12 01:23N 40°21' E 121°54'0 0.0
2014-Nov-12 00:23N 40°21' E 121°54'0 0.0
2014-Nov-11 23:17N 40°21' E 121°54'0 0.0
2014-Nov-11 22:29N 40°21' E 121°54'1 0.7
2014-Nov-11 20:33N 40°20' E 121°55'20311.3
2014-Nov-11 02:34N 38°53' E 117°57'1010.1
2014-Nov-11 01:32N 38°57' E 117°45'0 0.1
2014-Nov-11 00:26N 38°57' E 117°45'0 0.1
2014-Nov-10 23:32N 38°57' E 117°45'0 0.0
2014-Nov-10 22:32N 38°57' E 117°45'0 0.0
2014-Nov-10 21:26N 38°57' E 117°45'0 0.0
2014-Nov-10 20:32N 38°57' E 117°45'0 0.0
2014-Nov-10 19:32N 38°57' E 117°45'0 0.0
2014-Nov-10 18:32N 38°57' E 117°45'0 0.0
2014-Nov-10 17:32N 38°57' E 117°45'0 0.0
2014-Nov-10 16:32N 38°57' E 117°45'0 0.0
2014-Nov-10 15:32N 38°57' E 117°45'0 0.0
2014-Nov-10 14:26N 38°57' E 117°45'0 0.0
2014-Nov-10 13:32N 38°57' E 117°45'0 0.0
2014-Nov-10 12:32N 38°57' E 117°45'0 0.0
2014-Nov-10 11:32N 38°57' E 117°45'0 0.0
2014-Nov-10 10:32N 38°57' E 117°45'0 0.0
2014-Nov-10 09:32N 38°57' E 117°45'0 0.0
2014-Nov-10 08:26N 38°57' E 117°45'0 0.0
2014-Nov-10 07:32N 38°57' E 117°45'0 0.0
2014-Nov-10 06:26N 38°57' E 117°45'0 0.1
2014-Nov-10 05:32N 38°57' E 117°45'0 0.0
2014-Nov-10 04:32N 38°57' E 117°45'0 0.0
2014-Nov-10 03:33N 38°57' E 117°45'9 8.3
2014-Nov-10 02:31N 38°54' E 117°55'7 3.2
2014-Nov-10 00:29N 38°53' E 118°03'0 0.0
2014-Nov-09 23:17N 38°53' E 118°03'0 0.1
2014-Nov-09 22:29N 38°53' E 118°03'0 0.0
2014-Nov-09 21:23N 38°53' E 118°03'0 0.1
2014-Nov-09 20:23N 38°53' E 118°03'0 0.1
2014-Nov-09 19:29N 38°53' E 118°03'0 0.0
2014-Nov-09 18:29N 38°53' E 118°03'0 0.0
2014-Nov-09 17:23N 38°53' E 118°03'0 0.1
2014-Nov-09 16:29N 38°53' E 118°03'0 0.0
2014-Nov-09 10:29N 38°53' E 118°03'0 0.0
2014-Nov-09 09:29N 38°53' E 118°03'0 0.0
2014-Nov-09 08:05N 38°53' E 118°03'0 0.1
2014-Nov-09 07:17N 38°53' E 118°03'0 0.0
2014-Nov-09 06:29N 38°53' E 118°03'0 0.0
2014-Nov-09 04:29N 38°53' E 118°03'0 0.1
2014-Nov-09 03:11N 38°53' E 118°03'0 0.0
2014-Nov-09 02:23N 38°53' E 118°03'0 0.0
2014-Nov-09 01:23N 38°53' E 118°03'0 0.0
2014-Nov-09 00:23N 38°53' E 118°03'0 0.0
2014-Nov-08 23:05N 38°53' E 118°03'0 0.1
2014-Nov-08 22:28N 38°53' E 118°03'4 3.9
2014-Nov-08 21:27N 38°54' E 118°08'15212.7
2014-Nov-08 09:31N 38°29' E 121°20'  
2014-Nov-05 08:10N 24°09' E 120°05'1013.9
2014-Nov-05 07:27N 23°60' E 120°02'6712.8
2014-Nov-05 02:13N 22°53' E 119°54'914.0
2014-Nov-05 01:33N 22°44' E 119°54'1414.2
2014-Nov-05 00:33N 22°30' E 119°54'  

Dump ship's entire track history